Time;durP1;ratioP1;P1;durP2;ratioP2;P2;SDS_P1;SDS_P2;PMS_P1;PMS_P2;Temp;Humidity;BMP_temperature;BMP_pressure;BME280_temperature;BME280_humidity;BME280_pressure;Samples;Min_cycle;Max_cycle;Signal;HPM_P1;HPM_P2
2021/10/10 00:01:19;;;;;;;16.27;8.73;;;5.30;66.90;;;4.31;52.42;95979.06;5054302;28;20262;-80
2021/10/10 00:03:47;;;;;;;12.63;8.45;;;5.20;66.90;;;4.30;52.64;95979.19;5054747;28;20200;-80
2021/10/10 00:06:14;;;;;;;15.93;7.93;;;5.20;66.80;;;4.27;52.49;95974.25;5037499;28;20699;-79
2021/10/10 00:08:41;;;;;;;12.23;7.35;;;5.20;66.90;;;4.27;52.84;95977.69;5033402;28;20184;-78
2021/10/10 00:11:09;;;;;;;13.77;7.82;;;5.20;67.00;;;4.25;52.71;95974.38;5018551;28;20220;-77
2021/10/10 00:13:36;;;;;;;12.82;7.82;;;5.20;66.90;;;4.22;52.67;95987.59;5034579;28;20200;-78
2021/10/10 00:16:04;;;;;;;13.52;8.43;;;5.20;67.00;;;4.20;52.30;95976.53;5051916;28;20281;-77
2021/10/10 00:18:32;;;;;;;13.18;7.65;;;5.20;66.90;;;4.18;52.50;95981.00;5037385;28;20223;-80
2021/10/10 00:20:59;;;;;;;11.82;8.05;;;5.10;67.00;;;4.17;52.41;95987.16;5051918;28;20710;-80
2021/10/10 00:23:26;;;;;;;12.30;7.82;;;5.10;67.00;;;4.16;52.69;95986.34;5038096;28;20187;-80
2021/10/10 00:25:53;;;;;;;13.27;7.80;;;5.10;66.90;;;4.14;52.54;95967.47;5053982;28;20262;-80
2021/10/10 00:28:20;;;;;;;11.35;8.05;;;5.10;67.10;;;4.14;53.19;95964.06;5037841;28;20196;-80
2021/10/10 00:30:48;;;;;;;17.10;8.00;;;5.00;67.10;;;4.07;52.89;95968.91;5050514;28;20204;-80
2021/10/10 00:33:15;;;;;;;13.85;7.97;;;5.00;67.10;;;4.07;52.79;95968.91;5066887;28;20300;-79
2021/10/10 00:35:42;;;;;;;14.35;8.70;;;5.00;67.20;;;4.03;52.96;95974.47;5060623;28;20201;-80
2021/10/10 00:38:09;;;;;;;11.45;7.47;;;5.00;67.20;;;3.99;52.54;95973.91;5001694;28;20270;-80
2021/10/10 00:40:37;;;;;;;12.88;7.88;;;5.00;67.20;;;3.95;52.84;95965.53;5021363;28;20204;-80
2021/10/10 00:43:04;;;;;;;12.50;7.13;;;4.90;67.20;;;3.93;52.52;95964.84;5033656;28;20197;-80
2021/10/10 00:45:33;;;;;;;11.95;7.35;;;4.90;67.20;;;3.93;52.79;95971.78;5025202;28;20207;-79
2021/10/10 00:48:02;;;;;;;12.88;7.43;;;4.90;67.30;;;3.91;53.13;95966.75;5053949;28;20291;-80
2021/10/10 00:50:31;;;;;;;11.65;7.25;;;4.80;67.30;;;3.86;52.77;95961.09;5036786;28;20678;-81
2021/10/10 00:53:01;;;;;;;10.02;6.55;;;4.80;67.30;;;3.84;52.83;95963.84;5020969;28;20196;-80
2021/10/10 00:55:30;;;;;;;13.27;7.95;;;4.80;67.60;;;3.80;52.92;95959.81;5036462;28;20196;-80
2021/10/10 00:57:58;;;;;;;13.07;8.23;;;4.80;67.30;;;3.80;52.80;95962.41;5085977;28;20195;-80
2021/10/10 01:00:26;;;;;;;12.63;7.88;;;4.70;67.30;;;3.77;52.81;95957.47;5036408;28;20203;-81
2021/10/10 01:03:00;;;;;;;12.48;7.68;;;4.70;67.30;;;3.77;52.94;95959.25;5036717;28;20212;-80
2021/10/10 01:05:28;;;;;;;12.50;7.82;;;4.80;67.50;;;3.74;53.14;95960.31;5054171;28;20203;-80
2021/10/10 01:07:55;;;;;;;13.45;8.27;;;4.70;67.40;;;3.75;53.07;95956.78;5036024;28;20662;-80
2021/10/10 01:10:24;;;;;;;15.88;8.10;;;4.70;67.50;;;3.76;53.09;95957.59;5032644;28;20232;-80
2021/10/10 01:12:52;;;;;;;12.88;7.90;;;4.70;67.50;;;3.74;53.11;95954.31;5053778;28;20299;-80
2021/10/10 01:15:19;;;;;;;14.77;8.07;;;4.70;67.50;;;3.72;53.20;95951.81;5053661;28;20596;-79
2021/10/10 01:17:50;;;;;;;11.30;7.85;;;4.70;67.60;;;3.71;53.18;95947.59;5053264;28;20247;-80
2021/10/10 01:20:20;;;;;;;13.27;8.35;;;4.70;67.90;;;3.71;53.17;95947.59;5036595;28;20700;-80
2021/10/10 01:22:48;;;;;;;11.90;7.05;;;4.60;67.80;;;3.67;53.21;95946.19;5036741;28;20223;-80
2021/10/10 01:25:15;;;;;;;12.90;7.57;;;4.60;67.70;;;3.66;53.21;95939.34;5053202;28;20194;-79
2021/10/10 01:27:42;;;;;;;12.05;7.63;;;4.60;67.60;;;3.64;53.11;95930.88;5036045;28;20711;-80
2021/10/10 01:30:10;;;;;;;14.50;8.27;;;4.60;67.70;;;3.62;53.32;95927.56;5035639;28;20188;-80
2021/10/10 01:32:38;;;;;;;14.32;8.15;;;4.60;67.70;;;3.62;53.43;95936.16;5033072;28;20220;-80
2021/10/10 01:35:06;;;;;;;14.10;8.18;;;4.60;67.80;;;3.57;53.24;95929.72;5033113;28;20192;-80
2021/10/10 01:37:33;;;;;;;13.57;7.88;;;4.60;67.90;;;3.58;53.36;95928.78;5033159;28;20259;-79
2021/10/10 01:40:00;;;;;;;13.57;8.25;;;4.50;67.80;;;3.59;53.50;95927.81;5016489;28;20228;-80
2021/10/10 01:42:27;;;;;;;14.70;8.93;;;4.50;67.80;;;3.57;53.46;95924.53;5032765;28;20259;-80
2021/10/10 01:44:54;;;;;;;16.23;8.18;;;4.50;67.90;;;3.59;53.36;95933.00;5049494;28;20657;-80
2021/10/10 01:47:22;;;;;;;17.00;8.70;;;4.50;67.90;;;3.58;53.70;95923.59;5066343;28;20285;-80
2021/10/10 01:49:49;;;;;;;15.02;8.88;;;4.50;67.90;;;3.57;53.69;95916.75;5069886;28;20185;-80
2021/10/10 01:52:16;;;;;;;13.32;8.68;;;4.50;68.00;;;3.53;53.62;95909.19;5035883;28;20297;-80
2021/10/10 01:54:43;;;;;;;16.02;8.20;;;4.50;68.00;;;3.57;53.52;95914.97;5032467;28;20192;-80
2021/10/10 01:57:11;;;;;;;14.35;9.20;;;4.50;68.10;;;3.53;53.77;95911.00;5032417;28;20221;-80
2021/10/10 01:59:39;;;;;;;15.55;8.60;;;4.50;68.90;;;3.57;53.71;95920.16;5068335;28;20238;-79
2021/10/10 02:02:06;;;;;;;15.90;9.35;;;4.50;68.00;;;3.59;53.56;95920.03;5058013;28;20223;-80
2021/10/10 02:04:33;;;;;;;15.95;8.90;;;4.50;68.10;;;3.59;53.44;95918.28;5003169;28;20291;-80
2021/10/10 02:07:00;;;;;;;12.68;7.97;;;4.50;68.10;;;3.61;53.57;95916.34;5052425;28;20208;-80
2021/10/10 02:09:28;;;;;;;13.80;8.38;;;4.40;68.00;;;3.57;53.63;95914.16;5053214;28;20663;-79
2021/10/10 02:11:55;;;;;;;15.05;8.65;;;4.50;68.10;;;3.59;53.60;95910.50;5034817;28;20239;-80
2021/10/10 02:14:22;;;;;;;13.30;8.48;;;4.50;68.10;;;3.56;53.65;95918.50;5018955;28;20234;-80
2021/10/10 02:16:49;;;;;;;14.60;8.15;;;4.50;68.10;;;3.55;53.58;95922.03;5035294;28;20247;-81
2021/10/10 02:19:16;;;;;;;17.65;8.68;;;4.40;68.00;;;3.53;53.57;95914.38;5019195;28;20242;-80
2021/10/10 02:21:44;;;;;;;16.00;8.48;;;4.50;68.00;;;3.53;53.37;95916.19;5050828;28;20593;-80
2021/10/10 02:24:11;;;;;;;15.18;8.70;;;4.40;68.00;;;3.51;53.80;95910.28;5052975;28;20658;-79
2021/10/10 02:26:39;;;;;;;13.65;8.70;;;4.40;68.30;;;3.50;53.78;95911.22;5051890;28;20228;-80
2021/10/10 02:29:06;;;;;;;14.13;8.38;;;4.40;68.10;;;3.47;53.63;95904.50;5034879;28;20706;-80
2021/10/10 02:31:33;;;;;;;16.08;8.50;;;4.40;68.20;;;3.46;53.88;95910.63;5035080;28;20227;-80
2021/10/10 02:34:00;;;;;;;15.93;8.60;;;4.40;68.10;;;3.45;53.84;95911.56;5035352;28;20200;-79
2021/10/10 02:36:28;;;;;;;14.57;8.55;;;4.40;68.30;;;3.43;53.94;95910.91;5017750;28;20763;-79
2021/10/10 02:38:55;;;;;;;14.63;9.48;;;4.40;68.30;;;3.39;54.13;95906.88;5050729;28;20311;-80
2021/10/10 02:41:22;;;;;;;17.42;9.45;;;4.40;68.30;;;3.40;54.11;95900.75;5048687;28;20222;-79
2021/10/10 02:43:49;;;;;;;15.80;9.45;;;4.40;68.40;;;3.42;54.23;95906.66;5032985;28;20666;-80
2021/10/10 02:46:17;;;;;;;12.70;8.40;;;4.40;68.40;;;3.38;54.29;95910.41;5053210;28;20281;-80
2021/10/10 02:48:44;;;;;;;17.95;8.93;;;4.30;68.30;;;3.34;54.16;95899.50;5040275;28;20802;-79
2021/10/10 02:51:11;;;;;;;13.95;8.55;;;4.30;68.30;;;3.36;53.82;95904.56;5012499;28;20724;-79
2021/10/10 02:53:38;;;;;;;12.95;8.40;;;4.30;68.40;;;3.32;54.22;95900.53;5031706;28;20192;-79
2021/10/10 02:56:05;;;;;;;15.10;9.65;;;4.30;68.40;;;3.34;54.00;95902.09;5048797;28;20266;-78
2021/10/10 02:58:33;;;;;;;17.45;9.15;;;4.30;68.40;;;3.29;54.85;95895.63;5033643;28;20646;-79
2021/10/10 03:01:00;;;;;;;16.60;10.02;;;4.30;68.50;;;3.33;54.38;95903.03;5048835;28;20216;-80
2021/10/10 03:03:27;;;;;;;16.38;8.95;;;4.30;68.50;;;3.27;54.39;95890.56;5031440;28;20551;-78
2021/10/10 03:05:55;;;;;;;15.07;8.43;;;4.20;68.50;;;3.26;54.45;95894.09;5029283;28;20684;-79
2021/10/10 03:08:22;;;;;;;13.30;8.45;;;4.20;68.50;;;3.27;54.33;95895.75;5025926;28;20606;-78
2021/10/10 03:10:49;;;;;;;14.63;8.52;;;4.20;68.60;;;3.24;54.36;95890.78;5026876;28;20744;-79
2021/10/10 03:13:17;;;;;;;13.20;8.23;;;4.20;68.50;;;3.20;54.37;95887.63;5031361;28;20695;-78
2021/10/10 03:15:44;;;;;;;15.73;9.27;;;4.20;68.60;;;3.20;54.61;95892.81;5026065;28;20320;-78
2021/10/10 03:18:11;;;;;;;13.20;8.70;;;4.20;68.60;;;3.19;54.46;95895.53;5017246;28;20246;-78
2021/10/10 03:20:38;;;;;;;14.95;8.57;;;4.20;68.60;;;3.18;54.35;95889.50;5034008;28;20204;-80
2021/10/10 03:23:05;;;;;;;15.88;9.38;;;4.20;68.70;;;3.19;54.47;95890.34;5033885;28;20576;-79
2021/10/10 03:25:33;;;;;;;15.88;9.10;;;4.10;68.60;;;3.16;54.57;95886.22;5028182;28;20207;-79
2021/10/10 03:28:00;;;;;;;15.57;9.60;;;4.10;68.60;;;3.16;54.39;95885.38;5050136;28;20200;-80
2021/10/10 03:30:27;;;;;;;14.68;8.88;;;4.10;68.70;;;3.15;54.33;95892.34;5049582;28;20200;-80
2021/10/10 03:32:54;;;;;;;14.98;9.32;;;4.10;68.80;;;3.12;54.62;95891.78;5031185;28;20603;-80
2021/10/10 03:35:21;;;;;;;20.08;9.27;;;4.10;68.80;;;3.10;54.54;95889.31;5031767;28;20200;-79
2021/10/10 03:37:48;;;;;;;14.98;9.65;;;4.10;68.80;;;3.10;54.53;95897.09;5047405;28;20303;-80
2021/10/10 03:40:19;;;;;;;15.55;8.73;;;4.10;68.80;;;3.07;54.77;95886.94;5014922;28;20762;-78
2021/10/10 03:42:46;;;;;;;15.82;9.48;;;4.00;68.70;;;3.02;54.58;95878.72;5050319;28;20215;-79
2021/10/10 03:45:14;;;;;;;14.95;9.35;;;4.00;68.80;;;3.00;54.46;95886.63;5029336;28;20231;-76
2021/10/10 03:47:41;;;;;;;12.30;8.45;;;4.00;68.80;;;2.95;54.73;95882.72;5042539;28;20293;-78
2021/10/10 03:50:09;;;;;;;19.60;8.98;;;4.00;68.80;;;2.96;54.79;95884.38;5047867;28;20188;-76
2021/10/10 03:52:36;;;;;;;13.98;8.77;;;4.00;68.90;;;2.94;54.55;95892.28;5050691;28;20212;-77
2021/10/10 03:55:26;;;;;;;15.73;8.55;;;3.90;68.80;;;2.90;54.43;95877.91;5028210;28;20201;-80
2021/10/10 03:57:57;;;;;;;17.83;9.30;;;3.90;68.90;;;2.88;54.81;95882.38;5046746;28;20233;-77
2021/10/10 04:00:28;;;;;;;15.73;8.55;;;3.90;68.80;;;2.85;54.67;95873.06;5048945;28;20220;-76
2021/10/10 04:02:59;;;;;;;18.10;9.15;;;3.90;69.20;;;2.84;54.93;95871.41;5032272;28;20279;-80
2021/10/10 04:08:01;;;;;;;16.15;9.10;;;3.80;69.90;;;2.83;54.57;95876.72;5033145;28;20200;-80
2021/10/10 04:10:29;;;;;;;16.52;9.30;;;3.80;69.00;;;2.82;54.89;95870.72;5032650;28;20196;-80
2021/10/10 04:12:56;;;;;;;16.10;9.20;;;3.80;69.00;;;2.82;54.93;95870.72;5033858;28;20258;-80
2021/10/10 04:15:23;;;;;;;17.48;9.73;;;3.80;69.10;;;2.82;55.04;95873.31;5049816;28;20196;-79
2021/10/10 04:17:50;;;;;;;16.60;9.02;;;3.80;69.00;;;2.80;54.86;95867.44;5050516;28;20223;-80
2021/10/10 04:20:19;;;;;;;14.93;8.95;;;3.80;69.10;;;2.82;55.23;95862.97;5033546;28;20218;-79
2021/10/10 04:22:46;;;;;;;15.52;9.63;;;3.80;69.20;;;2.81;55.13;95861.31;5032029;28;20216;-79
2021/10/10 04:25:14;;;;;;;18.60;9.13;;;3.80;69.20;;;2.82;54.96;95856.94;5033354;28;20254;-79
2021/10/10 04:27:43;;;;;;;16.88;8.65;;;3.70;69.20;;;2.80;55.00;95857.06;5056918;28;20216;-80
2021/10/10 04:30:13;;;;;;;17.33;8.88;;;3.80;69.30;;;2.80;55.19;95870.03;5046862;28;20201;-80
2021/10/10 04:32:43;;;;;;;19.38;8.98;;;3.80;69.40;;;2.79;55.13;95865.78;5013997;28;20248;-79
2021/10/10 04:35:11;;;;;;;13.27;7.85;;;3.80;69.50;;;2.72;55.16;95859.44;5046528;28;20198;-80
2021/10/10 04:37:39;;;;;;;14.55;8.52;;;3.80;69.40;;;2.76;55.30;95871.22;5046632;28;20278;-80
2021/10/10 04:40:08;;;;;;;15.52;8.27;;;3.70;69.20;;;2.72;55.10;95862.84;5025817;28;20693;-80
2021/10/10 04:42:36;;;;;;;14.65;8.73;;;3.70;69.20;;;2.68;54.92;95860.63;5027309;28;20217;-80
2021/10/10 04:45:06;;;;;;;14.15;8.25;;;3.80;69.30;;;2.66;55.03;95865.94;5046915;28;20313;-80
2021/10/10 04:47:33;;;;;;;15.70;9.05;;;3.70;69.30;;;2.63;55.35;95873.13;5055240;28;20276;-80
2021/10/10 04:50:01;;;;;;;15.90;9.57;;;3.70;69.20;;;2.58;55.75;95852.75;5026425;28;20491;-80
2021/10/10 04:52:30;;;;;;;14.88;9.57;;;3.70;69.20;;;2.50;55.75;95853.34;5068204;28;20240;-80
2021/10/10 04:54:58;;;;;;;16.95;9.30;;;3.60;69.30;;;2.52;55.82;95861.81;5051570;28;20185;-80
2021/10/10 04:57:25;;;;;;;18.70;9.93;;;3.60;69.50;;;2.49;55.67;95858.63;5034667;28;20228;-80
2021/10/10 04:59:52;;;;;;;15.82;9.45;;;3.60;69.40;;;2.50;55.57;95870.63;5035431;28;20684;-81
2021/10/10 05:02:21;;;;;;;14.63;8.27;;;3.50;69.40;;;2.48;55.50;95862.16;5054183;28;20311;-79
2021/10/10 05:04:51;;;;;;;14.88;8.95;;;3.50;69.50;;;2.45;55.24;95859.81;5047884;28;20200;-80
2021/10/10 05:07:20;;;;;;;15.50;7.97;;;3.50;69.50;;;2.43;55.44;95862.53;5037048;28;20220;-80
2021/10/10 05:09:47;;;;;;;12.82;8.30;;;3.50;69.50;;;2.40;55.07;95862.75;5035562;28;20211;-77
2021/10/10 05:12:15;;;;;;;16.58;9.40;;;3.40;69.40;;;2.35;55.76;95857.09;5052996;28;20786;-78
2021/10/10 05:14:43;;;;;;;16.80;9.10;;;3.40;69.50;;;2.37;55.73;95875.94;5036965;28;20685;-79
2021/10/10 05:17:10;;;;;;;15.93;8.93;;;3.40;69.60;;;2.36;55.45;95875.09;5019907;28;20211;-80
2021/10/10 05:19:38;;;;;;;15.65;8.88;;;3.40;69.60;;;2.36;55.78;95871.69;5035988;28;20211;-79
2021/10/10 05:22:05;;;;;;;16.75;9.80;;;3.30;69.60;;;2.35;55.86;95868.28;5053011;28;20274;-80
2021/10/10 05:24:33;;;;;;;15.15;8.82;;;3.30;69.70;;;2.33;55.96;95867.59;5033253;28;20616;-80
2021/10/10 05:27:01;;;;;;;17.17;10.10;;;3.30;69.70;;;2.35;55.82;95865.69;5066171;28;20262;-80
2021/10/10 05:29:29;;;;;;;16.63;9.85;;;3.30;69.80;;;2.37;56.12;95863.00;5045182;28;20253;-80
2021/10/10 05:31:56;;;;;;;15.95;9.63;;;3.30;69.80;;;2.40;55.85;95857.56;5036356;28;20258;-80
2021/10/10 05:34:24;;;;;;;16.35;9.52;;;3.30;70.00;;;2.44;56.32;95856.41;5036346;28;20193;-80
2021/10/10 05:36:51;;;;;;;15.85;9.88;;;3.30;70.10;;;2.48;55.89;95852.63;5052349;28;20584;-80
2021/10/10 05:39:18;;;;;;;17.83;10.43;;;3.40;70.20;;;2.51;55.75;95852.38;5048180;28;20213;-80
2021/10/10 05:41:45;;;;;;;15.73;9.43;;;3.40;70.30;;;2.56;56.19;95846.84;5050798;28;20685;-80
2021/10/10 05:44:13;;;;;;;21.90;10.50;;;3.40;70.40;;;2.66;56.17;95852.13;5036352;28;20196;-80
2021/10/10 05:46:40;;;;;;;15.88;9.35;;;3.50;70.50;;;2.70;56.10;95850.97;5069226;28;20262;-80
2021/10/10 05:49:08;;;;;;;17.83;10.27;;;3.50;70.50;;;2.75;56.20;95846.25;5020384;28;20246;-80
2021/10/10 05:51:35;;;;;;;15.25;9.75;;;3.50;70.60;;;2.83;56.23;95858.59;5017953;28;20615;-80
2021/10/10 05:54:04;;;;;;;17.63;10.30;;;3.60;70.80;;;2.91;56.10;95855.41;5019231;28;20208;-80
2021/10/10 05:56:33;;;;;;;16.15;9.25;;;3.60;70.80;;;2.98;56.15;95857.41;5035955;28;20274;-80
2021/10/10 05:59:06;;;;;;;15.52;8.95;;;3.70;70.90;;;3.06;56.07;95858.56;5051632;28;20595;-79
2021/10/10 06:01:39;;;;;;;16.98;9.40;;;3.70;70.80;;;3.12;56.22;95853.69;5035160;28;20739;-79
2021/10/10 06:04:07;;;;;;;17.17;9.18;;;3.80;71.80;;;3.22;56.26;95860.75;5035777;28;20860;-79
2021/10/10 06:06:34;;;;;;;16.92;9.65;;;3.80;70.90;;;3.29;56.11;95854.13;5018669;28;20640;-79
2021/10/10 06:09:05;;;;;;;16.45;9.82;;;3.90;71.10;;;3.41;56.15;95847.94;5014086;28;20207;-78
2021/10/10 06:11:35;;;;;;;15.23;9.48;;;4.00;71.20;;;3.52;56.00;95857.47;5034379;28;20212;-77
2021/10/10 06:14:03;;;;;;;23.15;12.73;;;4.00;71.10;;;3.62;56.00;95860.13;5032009;28;20192;-79
2021/10/10 06:16:31;;;;;;;23.98;13.93;;;4.10;71.10;;;3.71;56.07;95868.94;5023850;28;20269;-80
2021/10/10 06:19:00;;;;;;;22.95;12.38;;;4.20;71.10;;;3.80;56.08;95868.19;5035158;28;20188;-79
2021/10/10 06:21:28;;;;;;;18.40;11.23;;;4.30;71.30;;;3.90;55.71;95876.84;5051767;28;20681;-79
2021/10/10 06:23:56;;;;;;;15.07;9.75;;;4.40;71.20;;;3.96;55.95;95868.56;5051185;28;20258;-79
2021/10/10 06:26:24;;;;;;;16.80;10.32;;;4.40;71.20;;;4.04;55.73;95869.69;5051893;28;20243;-80
2021/10/10 06:28:51;;;;;;;14.45;9.50;;;4.50;71.10;;;4.11;55.80;95878.63;5049969;28;20204;-80
2021/10/10 06:31:18;;;;;;;15.55;9.15;;;4.60;71.30;;;4.19;55.89;95876.22;5034513;28;20247;-79
2021/10/10 06:33:46;;;;;;;16.55;8.43;;;4.60;71.20;;;4.26;55.68;95879.94;5051080;28;20200;-80
2021/10/10 06:36:19;;;;;;;15.15;9.07;;;4.70;71.10;;;4.30;55.81;95878.72;5034962;28;20632;-79
2021/10/10 06:38:48;;;;;;;17.20;9.55;;;4.80;71.20;;;4.39;55.88;95882.31;5052068;28;20701;-79
2021/10/10 06:41:16;;;;;;;14.00;8.90;;;4.80;71.20;;;4.46;55.79;95885.22;5019094;28;20236;-79
2021/10/10 06:43:43;;;;;;;14.52;8.80;;;4.90;71.20;;;4.51;55.72;95879.66;5035086;28;20619;-79
2021/10/10 06:46:11;;;;;;;15.50;9.35;;;5.00;71.20;;;4.62;55.53;95885.56;5067469;28;20204;-80
2021/10/10 06:48:38;;;;;;;15.13;9.07;;;5.10;71.20;;;4.70;55.95;95891.88;5047491;28;20200;-79
2021/10/10 06:51:06;;;;;;;14.18;8.73;;;5.10;71.20;;;4.80;55.52;95890.97;5051456;28;20216;-79
2021/10/10 06:53:33;;;;;;;17.42;9.98;;;5.20;71.20;;;4.91;55.57;95884.84;5018496;28;20200;-79
2021/10/10 06:56:04;;;;;;;20.75;12.23;;;5.30;71.20;;;5.02;55.67;95888.31;5018533;28;20751;-78
2021/10/10 06:58:32;;;;;;;19.10;11.50;;;5.40;71.20;;;5.12;55.46;95889.16;5048983;28;20692;-78
2021/10/10 07:00:59;;;;;;;20.63;11.18;;;5.50;71.10;;;5.21;55.70;95884.91;5050082;28;20234;-78
2021/10/10 07:03:27;;;;;;;15.70;10.30;;;5.50;71.00;;;5.29;55.74;95878.06;5050228;28;20265;-78
2021/10/10 07:05:54;;;;;;;17.23;10.48;;;5.60;71.00;;;5.38;55.47;95876.47;5032354;28;20224;-79
2021/10/10 07:08:24;;;;;;;16.55;10.52;;;5.70;71.00;;;5.49;55.50;95888.50;5050679;28;20263;-79
2021/10/10 07:10:51;;;;;;;20.08;10.95;;;5.80;71.00;;;5.55;55.07;95872.34;5058996;28;20625;-79
2021/10/10 07:13:18;;;;;;;18.08;10.75;;;5.80;70.90;;;5.68;55.47;95876.47;5032319;28;20196;-79
2021/10/10 07:15:46;;;;;;;20.02;12.68;;;6.00;71.00;;;5.79;54.92;95875.53;5050391;28;20212;-79
2021/10/10 07:18:14;;;;;;;19.48;11.68;;;6.00;70.90;;;5.88;55.04;95878.13;5050194;28;20240;-78
2021/10/10 07:23:54;;;;;;;18.17;10.90;;;6.20;70.90;;;6.10;54.78;95884.00;5036470;28;20206;-79
2021/10/10 07:26:22;;;;;;;18.58;11.73;;;6.40;71.00;;;6.22;54.95;95884.66;5035810;28;20222;-79
2021/10/10 07:28:51;;;;;;;23.02;10.95;;;6.50;71.00;;;6.32;54.98;95885.44;5015381;28;20235;-79
2021/10/10 07:31:19;;;;;;;19.48;11.30;;;6.50;70.90;;;6.41;54.80;95881.19;5030720;28;20213;-79
2021/10/10 07:33:47;;;;;;;20.92;11.63;;;6.60;70.90;;;6.50;54.89;95893.34;5050382;28;20191;-79
2021/10/10 07:36:15;;;;;;;20.45;11.27;;;6.70;70.80;;;6.59;55.25;95888.25;5041277;28;20242;-79
2021/10/10 07:38:42;;;;;;;17.40;11.60;;;6.80;70.90;;;6.65;55.13;95887.69;5047630;28;20223;-80
2021/10/10 07:41:09;;;;;;;17.63;11.60;;;6.90;71.00;;;6.79;54.86;95900.25;5047294;28;20228;-79
2021/10/10 07:43:38;;;;;;;20.98;11.93;;;7.00;70.90;;;6.87;54.89;95891.72;5047624;28;20200;-78
2021/10/10 07:46:06;;;;;;;18.27;12.57;;;7.10;70.70;;;6.97;54.55;95897.72;5049105;28;20322;-79
2021/10/10 07:48:35;;;;;;;22.52;13.07;;;7.20;70.70;;;7.04;54.54;95892.72;5033517;28;20662;-79
2021/10/10 07:51:04;;;;;;;19.70;13.02;;;7.20;70.60;;;7.14;54.75;95893.50;5032687;28;20230;-79
2021/10/10 07:53:31;;;;;;;17.13;11.48;;;7.30;70.50;;;7.19;54.46;95888.66;5031036;28;20502;-79
2021/10/10 07:55:59;;;;;;;17.63;10.90;;;7.40;70.60;;;7.30;54.32;95897.25;5030724;28;20219;-78
2021/10/10 07:58:26;;;;;;;19.13;12.35;;;7.50;70.40;;;7.37;54.23;95890.47;5031660;28;20250;-80
2021/10/10 08:00:53;;;;;;;15.18;11.02;;;7.60;70.40;;;7.43;54.37;95894.28;5031824;28;20697;-78
2021/10/10 08:03:20;;;;;;;18.33;11.05;;;7.60;70.30;;;7.51;54.28;95902.22;5032873;28;20257;-80
2021/10/10 08:05:51;;;;;;;23.90;13.30;;;7.70;70.20;;;7.59;54.03;95902.28;5065628;28;20188;-79
2021/10/10 08:08:18;;;;;;;17.73;11.35;;;7.70;70.30;;;7.69;53.78;95904.84;5032342;28;20246;-79
2021/10/10 08:10:45;;;;;;;19.25;11.63;;;7.80;70.30;;;7.77;54.14;95901.47;5066307;28;20203;-79
2021/10/10 08:13:13;;;;;;;17.80;11.15;;;7.90;70.40;;;7.85;53.79;95889.28;5034309;28;20200;-80
2021/10/10 08:15:41;;;;;;;18.58;11.30;;;8.00;70.30;;;7.96;54.03;95900.50;5048313;28;20254;-79
2021/10/10 08:18:08;;;;;;;20.90;11.65;;;8.10;70.30;;;8.05;54.04;95906.59;5052385;28;20204;-79
2021/10/10 08:20:38;;;;;;;21.85;11.82;;;8.10;70.20;;;8.12;53.92;95894.56;5037348;28;20244;-77
2021/10/10 08:23:06;;;;;;;16.83;11.52;;;8.20;70.20;;;8.22;53.80;95897.91;5071330;28;20478;-80
2021/10/10 08:25:33;;;;;;;18.70;12.20;;;8.40;70.20;;;8.31;53.88;95897.00;5055347;28;20192;-79
2021/10/10 08:28:00;;;;;;;21.40;12.73;;;8.40;70.10;;;8.37;54.08;95887.72;5054368;28;20203;-79
2021/10/10 08:30:29;;;;;;;21.35;12.23;;;8.50;70.10;;;8.45;53.50;95887.75;5054466;28;20212;-79
2021/10/10 08:32:57;;;;;;;18.88;12.27;;;8.60;70.10;;;8.54;53.39;95885.25;5053917;28;20616;-80
2021/10/10 08:35:24;;;;;;;20.25;12.75;;;8.70;70.10;;;8.63;53.75;95892.97;5036032;28;20548;-79
2021/10/10 08:37:51;;;;;;;20.48;11.30;;;8.70;70.10;;;8.69;53.58;95885.47;5035467;28;20216;-79
2021/10/10 08:40:19;;;;;;;19.75;12.35;;;8.80;70.00;;;8.81;53.49;95894.69;5052173;28;20223;-79
2021/10/10 08:42:50;;;;;;;18.77;12.15;;;8.90;70.00;;;8.89;53.27;95883.44;5064869;28;20224;-79
2021/10/10 08:45:23;;;;;;;20.35;11.98;;;8.90;69.90;;;8.97;53.24;95889.53;5032584;28;20654;-79
2021/10/10 08:47:54;;;;;;;19.63;11.85;;;9.00;69.90;;;9.03;53.18;95880.22;5021459;28;20208;-79
2021/10/10 08:50:28;;;;;;;20.27;12.40;;;9.10;69.80;;;9.15;53.17;95888.59;5054812;28;20220;-79
2021/10/10 08:52:59;;;;;;;17.85;11.63;;;9.20;69.90;;;9.22;53.26;95888.81;5028976;28;20238;-79
2021/10/10 08:55:31;;;;;;;19.80;12.63;;;9.30;69.70;;;9.29;53.19;95885.38;5015497;28;20668;-80
2021/10/10 08:58:00;;;;;;;19.13;12.57;;;9.40;69.80;;;9.38;53.05;95888.03;5035237;28;20242;-80
2021/10/10 09:00:33;;;;;;;19.48;11.85;;;9.40;69.60;;;9.41;52.84;95878.06;5052634;28;20258;-79
2021/10/10 09:03:03;;;;;;;19.70;12.73;;;9.50;69.50;;;9.52;53.01;95884.78;5052659;28;20196;-79
2021/10/10 09:05:49;;;;;;;21.10;11.88;;;9.60;69.60;;;9.60;52.91;95890.03;5038004;28;20204;-79
2021/10/10 09:08:17;;;;;;;18.88;11.65;;;9.70;69.50;;;9.68;52.81;95888.41;5052952;28;20226;-80
2021/10/10 09:10:56;;;;;;;19.10;12.55;;;9.70;69.40;;;9.77;52.85;95883.00;5036506;28;20192;-79
2021/10/10 09:13:32;;;;;;;18.20;11.43;;;9.70;69.40;;;9.85;52.65;95879.59;5068286;28;20228;-79
2021/10/10 09:16:02;;;;;;;18.38;12.10;;;9.90;69.30;;;9.93;52.73;95878.75;5053322;28;20311;-79
2021/10/10 09:18:42;;;;;;;19.83;12.60;;;10.00;68.20;;;10.03;52.79;95868.94;5051875;28;20574;-79
2021/10/10 09:21:24;;;;;;;20.77;12.93;;;10.00;68.00;;;10.13;52.81;95862.69;5053504;28;20232;-80
2021/10/10 09:23:55;;;;;;;18.80;12.02;;;10.10;68.00;;;10.22;52.68;95866.97;5035318;28;20224;-79
2021/10/10 09:26:23;;;;;;;18.50;11.57;;;10.30;68.40;;;10.34;52.69;95868.25;5068204;28;20220;-79
2021/10/10 09:28:51;;;;;;;19.50;11.95;;;10.30;68.20;;;10.44;52.58;95870.72;5035942;28;20646;-79
2021/10/10 09:31:19;;;;;;;18.58;12.20;;;10.40;68.20;;;10.51;52.17;95855.97;5052916;28;20223;-79
2021/10/10 09:33:56;;;;;;;19.50;12.00;;;10.50;69.20;;;10.67;51.88;95864.78;5052726;28;20552;-79
2021/10/10 09:36:29;;;;;;;18.35;11.90;;;10.60;68.20;;;10.76;52.11;95862.94;5070338;28;20227;-79
2021/10/10 09:39:10;;;;;;;21.13;12.25;;;10.70;68.00;;;10.82;52.17;95863.06;5053096;28;20192;-79
2021/10/10 09:41:50;;;;;;;17.58;11.77;;;10.70;67.90;;;10.84;52.05;95860.25;5037888;28;20227;-80
2021/10/10 09:46:48;;;;;;;19.42;12.02;;;11.00;67.70;;;10.82;52.33;95857.81;5052842;28;20227;-78
2021/10/10 09:49:27;;;;;;;20.00;12.80;;;10.90;67.50;;;10.81;52.42;95863.25;5052646;28;20200;-79
2021/10/10 09:52:09;;;;;;;18.92;12.02;;;11.00;67.30;;;10.81;51.88;95869.31;5053040;28;20254;-79
2021/10/10 09:54:57;;;;;;;21.75;12.55;;;11.00;67.50;;;10.87;52.10;95862.56;5052676;28;20227;-79
2021/10/10 09:57:32;;;;;;;18.88;12.60;;;11.10;67.30;;;10.95;52.52;95865.16;5052649;28;20271;-79
2021/10/10 09:59:59;;;;;;;17.83;11.57;;;11.10;67.90;;;11.08;52.63;95859.34;5069371;28;20663;-79
2021/10/10 10:02:42;;;;;;;16.88;11.80;;;11.30;68.10;;;11.30;52.54;95865.66;5052034;28;20778;-77
2021/10/10 10:05:27;;;;;;;16.95;11.52;;;11.30;67.80;;;11.51;52.54;95862.41;5035011;28;20294;-79
2021/10/10 10:07:55;;;;;;;17.83;11.85;;;11.50;67.80;;;11.78;52.20;95868.16;5052678;28;20223;-79
2021/10/10 10:10:26;;;;;;;19.83;12.40;;;11.80;68.30;;;11.99;52.04;95862.25;5052286;28;20615;-80
2021/10/10 10:12:55;;;;;;;18.05;11.75;;;11.80;68.00;;;12.18;51.69;95857.50;5069149;28;20272;-79
2021/10/10 10:15:33;;;;;;;16.40;11.93;;;12.00;68.00;;;12.38;51.41;95856.97;5052403;28;20219;-78
2021/10/10 10:18:05;;;;;;;18.83;12.50;;;12.20;67.40;;;12.57;51.50;95861.75;5053651;28;20191;-80
2021/10/10 10:20:35;;;;;;;17.60;11.15;;;12.30;67.40;;;12.71;51.22;95854.03;5033842;28;20252;-80
2021/10/10 10:23:02;;;;;;;18.23;12.38;;;12.50;67.30;;;12.88;51.06;95855.47;5033862;28;20734;-78
2021/10/10 10:25:31;;;;;;;19.70;11.50;;;12.70;67.40;;;13.06;51.01;95855.09;5050901;28;20198;-78
2021/10/10 10:27:58;;;;;;;20.63;12.27;;;12.90;67.50;;;13.23;51.05;95850.44;5051801;28;20261;-78
2021/10/10 10:30:26;;;;;;;17.55;11.55;;;13.00;67.50;;;13.41;50.73;95849.22;5052181;28;20195;-78
2021/10/10 10:32:54;;;;;;;19.15;12.02;;;13.20;67.20;;;13.57;50.31;95849.00;5051884;28;20704;-79
2021/10/10 10:35:22;;;;;;;18.67;12.55;;;13.30;67.20;;;13.77;50.62;95851.81;5052178;28;20265;-77
2021/10/10 10:37:53;;;;;;;19.30;12.60;;;13.50;67.10;;;13.92;50.33;95835.91;5052287;28;20230;-77